Flight Track Log - Related Links

Times and Time Zones

All times are in EDT time to prevent confusion due to time zone crossing. See the AWI3778 flight status page for this flight to view local times or setup timezone preferences in your user account.

Time Position Orientation Groundspeed Altitude Reporting Facility
EDT Latitude Longitude Course Direction KTS MPH feet Rate Location/Type
01:38PM 44.5164 -73.3250 277° West 217 250 6,400  Level Boston Center
01:39PM 44.1682 -73.2594 196° South  Level FlightAware Approximate
01:39PM 44.5261 -73.4008 280° West 223 257 9,200  Level Boston Center
01:40PM 44.0690 -73.2990 196° South  Level FlightAware Approximate
01:40PM 44.5378 -73.4914 280° West 228 262 11,200  Level Boston Center
01:41PM 43.9699 -73.3388 196° South  Level FlightAware Approximate
01:41PM 44.5514 -73.5878 281° West 245 282 13,600  Level Boston Center
01:42PM 43.8705 -73.3776 195° South  Level FlightAware Approximate
01:42PM 44.5111 -73.6744 237° Southwest 250 288 14,000  Level Boston Center
01:43PM 43.7708 -73.4144 195° South  Level FlightAware Approximate
01:44PM 44.4208 -73.7219 201° Southwest 280 322 15,300  Level Boston Center
01:45PM 44.3181 -73.7778 201° Southwest 324 373 18,000 2,700 Climbing Boston Center
01:46PM 44.2322 -73.8250 202° Southwest 335 386 20,700 2,100 Climbing Boston Center
01:47PM 44.1397 -73.8808 203° Southwest 335 386 22,200 1,450 Climbing Boston Center
01:48PM 44.0558 -73.9278 202° Southwest 335 386 23,600 1,350 Climbing Boston Center
01:49PM 43.9697 -73.9747 201° Southwest 340 391 24,900 1,150 Climbing Boston Center
01:50PM 43.8919 -74.0217 204° Southwest 340 391 25,900 550 Climbing Boston Center
01:51PM 43.8078 -74.0914 211° Southwest 347 399 26,000 50 Climbing Boston Center
01:52PM 43.7192 -74.1636 211° Southwest 361 415 26,000  Level Boston Center
01:53PM 43.6189 -74.1839 188° South 361 415 26,000  Level Boston Center
01:54PM 43.5144 -74.1864 181° South 368 423 26,000  Level Boston Center
01:55PM 43.4061 -74.1892 181° South 368 423 26,000  Level Boston Center
01:56PM 43.3058 -74.1978 184° South 368 423 26,000  Level Boston Center
01:57PM 43.2058 -74.2006 181° South 368 423 26,000  Level Boston Center
01:58PM 43.1036 -74.2061 182° South 368 423 26,000  Level Boston Center
01:59PM 42.9994 -74.2144 183° South 368 423 26,000  Level Boston Center
02:00PM 42.8931 -74.2169 181° South 378 435 26,000  Level Boston Center
02:01PM 42.8128 -74.2856 212° Southwest 348 400 26,000  Level Boston Center
02:02PM 42.7383 -74.3708 220° Southwest 348 400 26,000  Level Boston Center
02:03PM 42.6661 -74.4447 217° Southwest 343 395 26,000  Level Boston Center
02:04PM 42.5897 -74.5297 219° Southwest 348 400 26,000  Level Boston Center
02:05PM 42.5131 -74.6089 217° Southwest 353 406 26,000  Level Boston Center
02:06PM 42.4344 -74.6906 217° Southwest 358 412 26,000 -250 Level Boston Center
02:07PM 42.3533 -74.7747 217° Southwest 363 418 25,500 -1,170 Descending Boston Center
02:09PM 42.1764 -74.9572 217° Southwest 354 407 22,100 -1,440 Descending New York Center
02:10PM 42.1033 -75.0225 214° Southwest 354 407 20,700 -1,475 Descending New York Center
02:11PM 42.0261 -75.0872 212° Southwest 347 399 19,200 -864 Descending New York Center
02:12PM 41.9489 -75.1492 211° Southwest 340 391 19,000 -99 Descending New York Center
02:13PM 41.8608 -75.2211 211° Southwest 335 386 19,000 -496 Level New York Center
02:14PM 41.7792 -75.2853 210° Southwest 340 391 18,000 -1,190 Descending New York Center
02:15PM 41.7019 -75.3467 211° Southwest 340 391 16,600 -1,438 Descending New York Center
02:16PM 41.6353 -75.4006 211° Southwest 327 376 15,100 -1,475 Descending New York Center
02:17PM 41.5600 -75.4617 211° Southwest 317 365 13,700 -1,576 Descending New York Center
02:18PM 41.4825 -75.5228 211° Southwest 306 352 12,000 -1,339 Descending New York Center
02:19PM 41.4094 -75.5811 211° Southwest 306 352 11,000 -500 Descending New York Center
02:20PM 41.3447 -75.6347 212° Southwest 311 358 11,000 -202 Level New York Center
02:21PM 41.2633 -75.6867 206° Southwest 306 352 10,600 -500 Descending New York Center
02:22PM 41.1842 -75.6892 181° South 301 346 10,000 -298 Descending New York Center
02:23PM 41.0842 -75.6875 179° South 322 371 10,000  Level New York Center
02:24PM 40.9967 -75.6894 181° South 330 380 10,000  Level New York Center
02:25PM 40.9175 -75.6892 180° South 325 374 10,000  Level New York Center
02:26PM 40.8300 -75.6883 180° South 325 374 10,000  Level New York Center
02:27PM 40.7339 -75.6950 183° South 325 374 10,000  Level New York Center
02:28PM 40.6511 -75.6836 174° South 317 365 10,000  Level New York Center
02:29PM 40.5917 -75.6111 137° Southeast 300 345 10,000  Level New York Center
02:30PM 40.5261 -75.5300 137° Southeast 313 360 10,000  Level New York Center
02:31PM 40.4586 -75.4436 136° Southeast 318 366 10,000 -344 Level New York Center
02:32PM 40.3861 -75.3842 148° Southeast 313 360 9,300 -1,091 Descending New York Center
02:33PM 40.3167 -75.3469 158° South 307 353 7,800 -1,500 Descending New York Center
02:34PM 40.2431 -75.3067 157° South 292 336 6,300 -1,525 Descending New York Center
02:35PM 40.1653 -75.2717 161° South 292 336 4,800 -1,169 Descending New York Center
02:36PM 40.0894 -75.2394 162° South 276 318 4,000 -397 Descending New York Center
02:37PM 40.0236 -75.2136 163° South 276 318 4,000  Level New York Center
02:38PM 39.9333 -75.1833 166° South 230 265 4,000  Level Philadelphia TRACON
02:39PM 39.8667 -75.1500 159° South 209 241 4,000 -190 Level Philadelphia TRACON
02:40PM 39.8167 -75.1333 166° South 213 245 3,600 -496 Descending Philadelphia TRACON
02:41PM 39.7667 -75.1167 166° South 191 220 3,000 -737 Descending Philadelphia TRACON
02:42PM 39.7667 -75.1667 270° West 196 226 2,200 -842 Descending Philadelphia TRACON
02:43PM 39.8167 -75.2000 333° Northwest 173 199 1,400 -800 Descending Philadelphia TRACON

Login

Don't have an account? Register now (free) for customized features, flight alerts, and more!